createdAt,value
2022-09-23T00:00:00.649Z,89.51
2022-09-23T00:01:00.676Z,89.61
2022-09-23T00:02:00.710Z,89.72
2022-09-23T00:03:00.672Z,90.12
2022-09-23T00:04:00.541Z,90.33
2022-09-23T00:05:00.545Z,90.53
2022-09-23T00:06:00.610Z,90.53
2022-09-23T00:07:00.509Z,90.64
2022-09-23T00:08:00.500Z,90.53
2022-09-23T00:09:00.612Z,90.53
2022-09-23T00:10:00.488Z,90.53
2022-09-23T00:11:00.540Z,90.53
2022-09-23T00:12:00.510Z,90.53
2022-09-23T00:13:00.477Z,90.43
2022-09-23T00:14:00.434Z,90.33
2022-09-23T00:15:00.457Z,90.12
2022-09-23T00:16:00.419Z,90.12
2022-09-23T00:17:00.520Z,90.12
2022-09-23T00:18:00.426Z,90.02
2022-09-23T00:19:00.372Z,89.92
2022-09-23T00:20:00.411Z,89.82
2022-09-23T00:21:00.405Z,89.92
2022-09-23T00:22:00.344Z,89.82
2022-09-23T00:23:00.346Z,89.72
2022-09-23T00:24:00.372Z,89.51
2022-09-23T00:25:00.332Z,89.51
2022-09-23T00:26:00.329Z,89.61
2022-09-23T00:27:00.327Z,89.41
2022-09-23T00:28:00.284Z,89.41
2022-09-23T00:29:00.263Z,89.31
2022-09-23T00:30:00.304Z,89.41
2022-09-23T00:31:00.265Z,89.51
2022-09-23T00:32:00.258Z,89.61
2022-09-23T00:33:00.249Z,89.72
2022-09-23T00:34:00.229Z,89.72
2022-09-23T00:35:00.204Z,89.82
2022-09-23T00:36:00.230Z,89.82
2022-09-23T00:37:00.192Z,89.72
2022-09-23T00:38:00.164Z,89.72
2022-09-23T00:39:00.180Z,89.72
2022-09-23T00:40:00.144Z,89.72
2022-09-23T00:41:00.638Z,89.72
2022-09-23T00:42:00.149Z,89.82
2022-09-23T00:43:00.116Z,89.92
2022-09-23T00:44:00.120Z,90.06
2022-09-23T00:45:00.086Z,89.92
2022-09-23T00:46:00.151Z,89.86
2022-09-23T00:47:00.082Z,89.65
2022-09-23T00:48:00.142Z,89.65
2022-09-23T00:49:00.112Z,89.35
2022-09-23T00:50:00.029Z,89.25
2022-09-23T00:51:00.023Z,89.25
2022-09-23T00:52:00.008Z,89.25
2022-09-23T00:52:59.999Z,89.04
2022-09-23T00:54:00.072Z,88.94
2022-09-23T00:55:00.031Z,88.84
2022-09-23T00:55:59.964Z,89.04
2022-09-23T00:56:59.953Z,89.25
2022-09-23T00:57:59.934Z,89.25
2022-09-23T00:58:59.949Z,89.25
2022-09-23T00:59:59.964Z,89.35
2022-09-23T01:00:59.973Z,89.45
2022-09-23T01:01:59.909Z,89.76
2022-09-23T01:02:59.899Z,89.76
2022-09-23T01:04:01.485Z,89.76
2022-09-23T01:04:59.871Z,89.56
2022-09-23T01:06:00.154Z,89.65
2022-09-23T01:06:59.839Z,89.56
2022-09-23T01:08:00.024Z,89.56
2022-09-23T01:09:00.070Z,89.56
2022-09-23T01:10:00.126Z,89.45
2022-09-23T01:11:00.264Z,89.45
2022-09-23T01:12:00.140Z,89.45
2022-09-23T01:13:00.075Z,89.56
2022-09-23T01:14:00.032Z,89.70
2022-09-23T01:15:00.046Z,89.80
2022-09-23T01:15:59.992Z,90.00
2022-09-23T01:16:59.934Z,90.21
2022-09-23T01:17:59.917Z,90.41
2022-09-23T01:18:59.895Z,90.52
2022-09-23T01:19:59.987Z,90.41
2022-09-23T01:20:59.892Z,90.41
2022-09-23T01:22:00.080Z,90.31
2022-09-23T01:23:00.154Z,90.31
2022-09-23T01:24:00.005Z,90.31
2022-09-23T01:24:59.908Z,90.41
2022-09-23T01:25:59.636Z,90.41
2022-09-23T01:26:59.893Z,90.56
2022-09-23T01:28:00.150Z,90.56
2022-09-23T01:28:59.871Z,90.56
2022-09-23T01:29:59.623Z,90.56
2022-09-23T01:30:59.784Z,90.56
2022-09-23T01:31:59.570Z,90.66
2022-09-23T01:32:59.554Z,90.66
2022-09-23T01:33:59.559Z,90.66
2022-09-23T01:34:59.523Z,90.56
2022-09-23T01:35:59.558Z,90.66
2022-09-23T01:36:59.508Z,90.66
2022-09-23T01:37:59.502Z,90.66
2022-09-23T01:38:59.626Z,90.86
2022-09-23T01:39:59.547Z,90.97
2022-09-23T01:40:59.603Z,90.97
2022-09-23T01:41:59.718Z,91.11
2022-09-23T01:42:59.525Z,91.31
2022-09-23T01:43:59.605Z,91.38
2022-09-23T01:44:59.534Z,91.52
2022-09-23T01:45:59.606Z,91.52
2022-09-23T01:46:59.507Z,91.52
2022-09-23T01:47:59.704Z,91.52
2022-09-23T01:48:59.573Z,91.52
2022-09-23T01:49:59.594Z,91.42
2022-09-23T01:50:59.632Z,91.42
2022-09-23T01:51:59.341Z,91.42
2022-09-23T01:52:59.447Z,91.31
2022-09-23T01:53:59.404Z,91.31
2022-09-23T01:54:59.551Z,91.22
2022-09-23T01:55:59.394Z,91.22
2022-09-23T01:57:00.013Z,91.22
2022-09-23T01:57:59.381Z,91.22
2022-09-23T01:58:59.390Z,91.22
2022-09-23T01:59:59.416Z,91.22
2022-09-23T02:00:59.502Z,91.22
2022-09-23T02:01:59.398Z,91.22
2022-09-23T02:02:59.461Z,91.31
2022-09-23T02:03:59.292Z,91.31
2022-09-23T02:05:00.396Z,91.22
2022-09-23T02:05:59.414Z,91.22
2022-09-23T02:06:59.601Z,91.22
2022-09-23T02:07:59.209Z,91.22
2022-09-23T02:08:59.430Z,91.22
2022-09-23T02:09:59.206Z,91.22
2022-09-23T02:10:59.481Z,91.22
2022-09-23T02:11:59.473Z,91.26
2022-09-23T02:12:59.305Z,91.36
2022-09-23T02:13:59.636Z,91.36
2022-09-23T02:14:59.668Z,91.36
2022-09-23T02:15:59.081Z,91.56
2022-09-23T02:16:59.276Z,91.67
2022-09-23T02:17:59.287Z,91.67
2022-09-23T02:18:59.096Z,92.18
2022-09-23T02:19:59.174Z,92.38
2022-09-23T02:20:59.006Z,92.28
2022-09-23T02:21:59.022Z,92.28
2022-09-23T02:22:59.016Z,92.38
2022-09-23T02:23:59.068Z,92.38
2022-09-23T02:24:59.342Z,92.38
2022-09-23T02:25:58.960Z,92.18
2022-09-23T02:26:58.942Z,92.08
2022-09-23T02:27:58.962Z,92.08
2022-09-23T02:28:59.339Z,92.08
2022-09-23T02:29:58.946Z,92.18
2022-09-23T02:30:58.896Z,92.18
2022-09-23T02:31:58.953Z,92.28
2022-09-23T02:32:58.891Z,92.28
2022-09-23T02:33:59.147Z,92.18
2022-09-23T02:34:58.851Z,92.22
2022-09-23T02:35:58.885Z,92.43
2022-09-23T02:36:58.830Z,92.43
2022-09-23T02:37:58.815Z,92.53
2022-09-23T02:38:58.812Z,92.63
2022-09-23T02:39:58.803Z,92.74
2022-09-23T02:40:58.882Z,92.94
2022-09-23T02:41:58.888Z,93.35
2022-09-23T02:42:59.119Z,93.55
2022-09-23T02:43:58.844Z,93.55
2022-09-23T02:44:58.740Z,93.66
2022-09-23T02:45:58.874Z,93.66
2022-09-23T02:46:58.713Z,93.45
2022-09-23T02:47:58.755Z,93.45
2022-09-23T02:48:58.701Z,93.66
2022-09-23T02:49:58.714Z,93.66
2022-09-23T02:50:58.681Z,93.45
2022-09-23T02:51:58.661Z,93.55
2022-09-23T02:52:58.641Z,93.45
2022-09-23T02:53:58.850Z,93.35
2022-09-23T02:54:58.666Z,93.25
2022-09-23T02:55:58.611Z,93.00
2022-09-23T02:56:58.600Z,93.00
2022-09-23T02:57:58.593Z,92.94
2022-09-23T02:58:58.589Z,92.90
2022-09-23T02:59:58.707Z,92.90
2022-09-23T03:00:58.628Z,92.79
2022-09-23T03:01:58.611Z,92.83
2022-09-23T03:02:58.539Z,92.94
2022-09-23T03:03:58.523Z,93.04
2022-09-23T03:04:58.581Z,92.94
2022-09-23T03:05:58.584Z,93.15
2022-09-23T03:06:58.582Z,93.15
2022-09-23T03:07:58.487Z,93.25
2022-09-23T03:08:58.473Z,93.35
2022-09-23T03:09:58.480Z,93.45
2022-09-23T03:10:58.443Z,93.45
2022-09-23T03:11:58.547Z,93.55
2022-09-23T03:12:58.448Z,93.66
2022-09-23T03:13:58.425Z,93.66
2022-09-23T03:14:58.421Z,93.45
2022-09-23T03:15:58.416Z,93.45
2022-09-23T03:16:58.393Z,93.55
2022-09-23T03:17:58.420Z,93.55
2022-09-23T03:18:58.359Z,93.35
2022-09-23T03:19:58.397Z,93.25
2022-09-23T03:20:58.349Z,93.15
2022-09-23T03:21:58.348Z,93.15
2022-09-23T03:22:58.329Z,93.04
2022-09-23T03:23:58.336Z,93.15
2022-09-23T03:24:58.580Z,93.15
2022-09-23T03:25:58.275Z,93.04
2022-09-23T03:26:58.282Z,93.15
2022-09-23T03:27:58.256Z,93.15
2022-09-23T03:28:58.255Z,93.25
2022-09-23T03:29:58.305Z,93.15
2022-09-23T03:30:58.227Z,93.25
2022-09-23T03:31:58.276Z,93.39
2022-09-23T03:32:58.198Z,93.60
2022-09-23T03:33:58.188Z,93.39
2022-09-23T03:34:58.177Z,93.29
2022-09-23T03:35:58.209Z,93.19
2022-09-23T03:36:59.157Z,93.19
2022-09-23T03:37:58.164Z,93.19
2022-09-23T03:38:58.123Z,93.19
2022-09-23T03:39:58.122Z,93.08
2022-09-23T03:40:58.101Z,93.29
2022-09-23T03:41:58.135Z,93.49
2022-09-23T03:42:58.087Z,93.39
2022-09-23T03:43:58.097Z,93.49
2022-09-23T03:44:58.068Z,93.33
2022-09-23T03:45:58.167Z,93.44
2022-09-23T03:46:58.089Z,93.23
2022-09-23T03:47:58.140Z,93.33
2022-09-23T03:48:58.130Z,93.54
2022-09-23T03:49:58.029Z,93.74
2022-09-23T03:50:57.985Z,93.89
2022-09-23T03:51:57.984Z,94.51
2022-09-23T03:52:58.037Z,94.67
2022-09-23T03:53:58.080Z,94.67
2022-09-23T03:54:57.962Z,94.67
2022-09-23T03:55:57.964Z,94.67
2022-09-23T03:56:57.943Z,94.67
2022-09-23T03:57:57.910Z,94.67
2022-09-23T03:58:57.931Z,94.67
2022-09-23T03:59:58.006Z,94.67
2022-09-23T04:00:58.037Z,94.67
2022-09-23T04:01:57.956Z,94.56
2022-09-23T04:02:57.874Z,94.71
2022-09-23T04:03:57.907Z,94.98
2022-09-23T04:04:57.841Z,95.07
2022-09-23T04:05:57.925Z,95.07
2022-09-23T04:06:57.813Z,95.02
2022-09-23T04:07:57.832Z,95.02
2022-09-23T04:08:57.968Z,95.12
2022-09-23T04:09:57.840Z,95.23
2022-09-23T04:10:57.842Z,95.32
2022-09-23T04:11:57.857Z,95.53
2022-09-23T04:12:57.771Z,95.43
2022-09-23T04:13:57.742Z,95.43
2022-09-23T04:14:57.729Z,95.43
2022-09-23T04:15:57.893Z,95.32
2022-09-23T04:16:57.724Z,95.32
2022-09-23T04:17:57.886Z,95.32
2022-09-23T04:18:57.725Z,95.43
2022-09-23T04:19:57.681Z,95.43
2022-09-23T04:20:57.666Z,95.53
2022-09-23T04:21:57.901Z,95.53
2022-09-23T04:22:57.661Z,95.53
2022-09-23T04:23:57.664Z,95.53
2022-09-23T04:24:57.626Z,95.53
2022-09-23T04:25:57.647Z,95.47
2022-09-23T04:26:57.593Z,95.78
2022-09-23T04:27:57.594Z,95.78
2022-09-23T04:28:57.560Z,95.89
2022-09-23T04:29:57.659Z,95.89
2022-09-23T04:30:57.654Z,95.98
2022-09-23T04:31:58.221Z,95.89
2022-09-23T04:32:57.585Z,95.78
2022-09-23T04:33:57.524Z,95.89
2022-09-23T04:34:57.580Z,95.78
2022-09-23T04:35:57.546Z,95.78
2022-09-23T04:36:57.482Z,95.68
2022-09-23T04:37:57.511Z,95.68
2022-09-23T04:38:57.449Z,95.47
2022-09-23T04:39:57.468Z,95.57
2022-09-23T04:40:57.440Z,95.57
2022-09-23T04:41:57.492Z,95.57
2022-09-23T04:42:57.473Z,95.47
2022-09-23T04:43:57.678Z,95.37
2022-09-23T04:44:57.393Z,95.57
2022-09-23T04:45:57.381Z,95.47
2022-09-23T04:46:57.384Z,95.57
2022-09-23T04:47:57.407Z,95.78
2022-09-23T04:48:57.391Z,95.78
2022-09-23T04:49:59.859Z,95.89
2022-09-23T04:50:57.323Z,95.98
2022-09-23T04:51:57.518Z,95.89
2022-09-23T04:52:57.364Z,95.78
2022-09-23T04:53:57.851Z,95.78
2022-09-23T04:54:57.576Z,95.78
2022-09-23T04:55:57.436Z,95.89
2022-09-23T04:56:57.307Z,95.98
2022-09-23T04:57:57.358Z,95.98
2022-09-23T04:58:57.486Z,95.98
2022-09-23T04:59:57.387Z,96.09
2022-09-23T05:01:01.710Z,95.98
2022-09-23T05:01:57.417Z,96.09
2022-09-23T05:02:57.307Z,96.09
2022-09-23T05:03:57.317Z,96.09
2022-09-23T05:04:57.528Z,96.09
2022-09-23T05:05:57.375Z,96.19
2022-09-23T05:07:00.813Z,96.19
2022-09-23T05:07:57.184Z,96.09
2022-09-23T05:08:57.159Z,96.19
2022-09-23T05:09:57.181Z,96.19
2022-09-23T05:10:57.656Z,96.19
2022-09-23T05:11:58.172Z,96.19
2022-09-23T05:12:57.931Z,96.30
2022-09-23T05:13:57.103Z,96.40
2022-09-23T05:14:57.106Z,96.50
2022-09-23T05:15:57.216Z,96.50
2022-09-23T05:16:57.151Z,96.40
2022-09-23T05:17:57.402Z,96.50
2022-09-23T05:18:57.142Z,96.50
2022-09-23T05:19:57.394Z,96.60
2022-09-23T05:20:57.440Z,96.60
2022-09-23T05:21:57.213Z,96.60
2022-09-23T05:22:57.021Z,96.70
2022-09-23T05:23:57.043Z,96.70
2022-09-23T05:24:57.170Z,96.81
2022-09-23T05:25:57.009Z,96.81
2022-09-23T05:26:57.103Z,96.81
2022-09-23T05:27:56.913Z,96.81
2022-09-23T05:29:03.077Z,96.70
2022-09-23T05:30:03.439Z,96.70
2022-09-23T05:31:03.320Z,96.70
2022-09-23T05:31:56.929Z,96.60
2022-09-23T05:32:56.879Z,96.60
2022-09-23T05:33:56.860Z,96.50
2022-09-23T05:34:57.116Z,96.40
2022-09-23T05:35:57.000Z,96.30
2022-09-23T05:36:56.918Z,96.30
2022-09-23T05:37:56.982Z,96.19
2022-09-23T05:38:56.872Z,96.09
2022-09-23T05:39:57.315Z,96.09
2022-09-23T05:40:58.062Z,95.94
2022-09-23T05:41:57.042Z,95.94
2022-09-23T05:42:56.896Z,95.84
2022-09-23T05:43:56.910Z,95.84
2022-09-23T05:44:56.805Z,95.74
2022-09-23T05:45:57.723Z,95.74
2022-09-23T05:46:57.369Z,95.74
2022-09-23T05:47:56.730Z,95.74
2022-09-23T05:49:01.139Z,95.74
2022-09-23T05:50:00.029Z,95.74
2022-09-23T05:50:56.717Z,95.64
2022-09-23T05:51:56.985Z,95.74
2022-09-23T05:52:56.785Z,95.74
2022-09-23T05:53:56.928Z,95.69
2022-09-23T05:54:56.836Z,95.69
2022-09-23T05:55:56.797Z,95.69
2022-09-23T05:56:59.292Z,95.69
2022-09-23T05:57:56.995Z,95.59
2022-09-23T05:58:57.130Z,95.59
2022-09-23T05:59:57.023Z,95.59
2022-09-23T06:00:58.398Z,95.59
2022-09-23T06:01:56.775Z,95.59
2022-09-23T06:02:56.627Z,95.49
2022-09-23T06:03:56.522Z,95.49
2022-09-23T06:04:56.652Z,95.49
2022-09-23T06:05:56.537Z,95.49
2022-09-23T06:06:58.416Z,95.44
2022-09-23T06:07:56.550Z,95.34
2022-09-23T06:08:56.563Z,95.24
2022-09-23T06:09:56.693Z,95.14
2022-09-23T06:10:56.610Z,95.03
2022-09-23T06:11:56.504Z,94.93
2022-09-23T06:12:56.527Z,94.93
2022-09-23T06:13:56.557Z,94.83
2022-09-23T06:14:56.505Z,94.73
2022-09-23T06:15:56.616Z,94.58
2022-09-23T06:16:56.832Z,94.48
2022-09-23T06:17:56.413Z,94.37
2022-09-23T06:18:56.473Z,94.17
2022-09-23T06:19:56.558Z,94.07
2022-09-23T06:20:56.481Z,93.96
2022-09-23T06:21:56.534Z,93.76
2022-09-23T06:22:56.424Z,93.76
2022-09-23T06:23:57.287Z,93.62
2022-09-23T06:24:56.361Z,93.51
2022-09-23T06:25:56.472Z,93.30
2022-09-23T06:26:56.307Z,93.10
2022-09-23T06:27:56.524Z,93.00
2022-09-23T06:28:56.598Z,92.90
2022-09-23T06:29:56.422Z,92.79
2022-09-23T06:30:56.409Z,92.69
2022-09-23T06:31:56.374Z,92.59
2022-09-23T06:32:56.331Z,92.49
2022-09-23T06:34:08.177Z,92.55
2022-09-23T06:34:56.283Z,92.55
2022-09-23T06:35:59.781Z,92.44
2022-09-23T06:36:56.352Z,92.34
2022-09-23T06:37:56.301Z,92.24
2022-09-23T06:38:56.285Z,92.14
2022-09-23T06:39:56.115Z,92.03
2022-09-23T06:40:56.187Z,92.03
2022-09-23T06:41:56.231Z,91.93
2022-09-23T06:42:56.322Z,91.73
2022-09-23T06:43:56.346Z,91.63
2022-09-23T06:44:56.231Z,91.63
2022-09-23T06:45:56.051Z,91.63
2022-09-23T06:46:56.434Z,91.73
2022-09-23T06:47:56.083Z,91.73
2022-09-23T06:48:56.067Z,91.63
2022-09-23T06:49:56.199Z,91.63
2022-09-23T06:50:56.054Z,91.63
2022-09-23T06:51:56.047Z,91.63
2022-09-23T06:52:56.259Z,91.73
2022-09-23T06:53:56.233Z,91.73
2022-09-23T06:54:56.751Z,91.69
2022-09-23T06:55:56.024Z,91.99
2022-09-23T06:56:56.262Z,92.10
2022-09-23T06:58:00.450Z,91.99
2022-09-23T06:58:56.674Z,91.89
2022-09-23T06:59:56.093Z,91.89
2022-09-23T07:00:56.042Z,91.78
2022-09-23T07:01:56.093Z,91.78
2022-09-23T07:02:56.247Z,91.69
2022-09-23T07:03:55.858Z,91.89
2022-09-23T07:04:56.344Z,91.78
2022-09-23T07:05:55.954Z,91.78
2022-09-23T07:06:56.260Z,91.69
2022-09-23T07:07:55.965Z,91.69
2022-09-23T07:08:56.158Z,91.64
2022-09-23T07:09:55.832Z,91.64
2022-09-23T07:10:56.352Z,91.44
2022-09-23T07:11:55.787Z,91.44
2022-09-23T07:12:56.022Z,91.23
2022-09-23T07:13:55.731Z,91.03
2022-09-23T07:14:55.749Z,91.03
2022-09-23T07:15:55.781Z,91.13
2022-09-23T07:16:55.775Z,91.13
2022-09-23T07:17:55.737Z,91.03
2022-09-23T07:18:55.699Z,91.03
2022-09-23T07:19:55.660Z,91.03
2022-09-23T07:20:55.693Z,91.23
2022-09-23T07:21:55.642Z,91.09
2022-09-23T07:22:55.675Z,90.92
2022-09-23T07:23:55.633Z,90.58
2022-09-23T07:24:55.599Z,90.47
2022-09-23T07:25:55.592Z,90.47
2022-09-23T07:26:55.605Z,90.37
2022-09-23T07:27:55.605Z,90.41
2022-09-23T07:28:55.691Z,90.72
2022-09-23T07:29:55.534Z,90.99
2022-09-23T07:31:00.347Z,90.68
2022-09-23T07:32:05.594Z,90.78
2022-09-23T07:32:55.627Z,90.78
2022-09-23T07:33:55.493Z,90.78
2022-09-23T07:34:55.534Z,90.58
2022-09-23T07:35:55.487Z,90.47
2022-09-23T07:36:55.497Z,90.68
2022-09-23T07:37:55.453Z,90.99
2022-09-23T07:38:56.129Z,90.78
2022-09-23T07:39:55.449Z,90.58
2022-09-23T07:40:55.552Z,90.27
2022-09-23T07:41:55.416Z,90.17
2022-09-23T07:42:55.407Z,90.12
2022-09-23T07:43:55.402Z,90.12
2022-09-23T07:44:55.390Z,90.02
2022-09-23T07:45:55.415Z,89.92
2022-09-23T07:46:55.404Z,90.02
2022-09-23T07:47:55.349Z,90.12
2022-09-23T07:48:55.460Z,89.82
2022-09-23T07:49:55.325Z,89.72
2022-09-23T07:50:55.318Z,89.78
2022-09-23T07:51:55.399Z,90.08
2022-09-23T07:52:55.365Z,90.29
2022-09-23T07:53:55.289Z,89.84
2022-09-23T07:54:55.502Z,89.53
2022-09-23T07:55:55.626Z,89.23
2022-09-23T07:56:55.521Z,89.08
2022-09-23T07:57:55.754Z,88.37
2022-09-23T07:58:55.768Z,88.47
2022-09-23T07:59:55.536Z,87.82
2022-09-23T08:00:55.432Z,87.92
2022-09-23T08:01:56.667Z,87.98
2022-09-23T08:02:55.548Z,87.77
2022-09-23T08:03:55.318Z,86.45
2022-09-23T08:04:55.351Z,86.35
2022-09-23T08:05:55.252Z,85.60
2022-09-23T08:06:55.550Z,85.69
2022-09-23T08:07:55.271Z,85.90
2022-09-23T08:08:55.543Z,85.80
2022-09-23T08:09:55.439Z,85.19
2022-09-23T08:10:55.368Z,85.55
2022-09-23T08:11:55.511Z,85.45
2022-09-23T08:12:55.073Z,84.53
2022-09-23T08:13:55.143Z,85.25
2022-09-23T08:14:55.329Z,85.45
2022-09-23T08:15:55.745Z,84.94
2022-09-23T08:16:55.285Z,84.94
2022-09-23T08:17:55.008Z,84.23
2022-09-23T08:18:55.140Z,84.74
2022-09-23T08:19:55.114Z,84.74
2022-09-23T08:20:55.144Z,84.12
2022-09-23T08:21:55.060Z,84.53
2022-09-23T08:22:55.291Z,84.53
2022-09-23T08:23:55.570Z,84.84
2022-09-23T08:24:56.692Z,84.94
2022-09-23T08:25:58.445Z,84.64
2022-09-23T08:26:55.382Z,85.35
2022-09-23T08:27:55.383Z,85.66
2022-09-23T08:28:55.507Z,85.45
2022-09-23T08:29:55.367Z,85.14
2022-09-23T08:30:55.287Z,84.84
2022-09-23T08:31:55.356Z,84.84
2022-09-23T08:32:59.377Z,84.70
2022-09-23T08:33:54.841Z,84.70
2022-09-23T08:34:55.527Z,84.70
2022-09-23T08:35:55.412Z,84.90
2022-09-23T08:36:54.814Z,84.29
2022-09-23T08:37:54.988Z,83.98
2022-09-23T08:38:55.149Z,83.98
2022-09-23T08:39:55.158Z,83.98
2022-09-23T08:40:54.822Z,83.23
2022-09-23T08:41:58.504Z,83.13
2022-09-23T08:42:54.739Z,83.34
2022-09-23T08:43:56.017Z,83.34
2022-09-23T08:44:54.987Z,82.89
2022-09-23T08:45:55.075Z,82.89
2022-09-23T08:46:55.091Z,83.29
2022-09-23T08:47:55.181Z,83.15
2022-09-23T08:48:54.811Z,82.54
2022-09-23T08:49:54.892Z,82.54
2022-09-23T08:50:54.815Z,82.34
2022-09-23T08:51:54.920Z,81.23
2022-09-23T08:52:54.758Z,81.29
2022-09-23T08:53:55.370Z,81.70
2022-09-23T08:54:55.656Z,81.70
2022-09-23T08:55:54.681Z,81.29
2022-09-23T08:56:54.576Z,81.09
2022-09-23T08:58:23.463Z,80.88
2022-09-23T08:58:55.303Z,80.88
2022-09-23T08:59:54.594Z,80.84
2022-09-23T09:00:54.785Z,80.84
2022-09-23T09:01:54.541Z,80.84
2022-09-23T09:02:54.726Z,81.66
2022-09-23T09:03:54.487Z,81.45
2022-09-23T09:04:54.738Z,81.56
2022-09-23T09:05:54.638Z,81.92
2022-09-23T09:07:00.129Z,81.82
2022-09-23T09:07:54.458Z,81.62
2022-09-23T09:08:54.441Z,81.31
2022-09-23T09:09:54.422Z,81.21
2022-09-23T09:10:54.445Z,81.41
2022-09-23T09:11:54.418Z,81.58
2022-09-23T09:12:54.390Z,80.66
2022-09-23T09:13:54.383Z,80.06
2022-09-23T09:14:54.398Z,79.85
2022-09-23T09:15:55.207Z,80.87
2022-09-23T09:17:01.780Z,81.07
2022-09-23T09:17:54.348Z,81.38
2022-09-23T09:18:54.334Z,80.53
2022-09-23T09:19:54.326Z,80.53
2022-09-23T09:20:54.345Z,81.13
2022-09-23T09:21:54.299Z,81.04
2022-09-23T09:22:54.430Z,79.58
2022-09-23T09:23:54.262Z,79.41
2022-09-23T09:24:54.276Z,79.92
2022-09-23T09:25:54.275Z,79.31
2022-09-23T09:26:54.273Z,79.78
2022-09-23T09:27:54.234Z,79.61
2022-09-23T09:29:02.273Z,79.78
2022-09-23T09:29:54.334Z,79.58
2022-09-23T09:30:54.327Z,79.17
2022-09-23T09:31:54.183Z,79.38
2022-09-23T09:32:54.222Z,78.77
2022-09-23T09:33:54.765Z,79.38
2022-09-23T09:34:54.648Z,79.31
2022-09-23T09:35:54.479Z,79.17
2022-09-23T09:36:54.334Z,78.87
2022-09-23T09:37:54.596Z,79.27
2022-09-23T09:38:54.361Z,79.47
2022-09-23T09:39:54.458Z,79.17
2022-09-23T09:40:54.797Z,79.17
2022-09-23T09:41:54.471Z,79.58
2022-09-23T09:42:54.759Z,79.58
2022-09-23T09:43:54.543Z,79.44
2022-09-23T09:44:54.569Z,79.13
2022-09-23T09:45:57.864Z,78.39
2022-09-23T09:46:54.446Z,77.48
2022-09-23T09:47:54.113Z,77.37
2022-09-23T09:48:54.323Z,77.84
2022-09-23T09:49:54.906Z,77.64
2022-09-23T09:50:54.371Z,76.39
2022-09-23T09:51:54.396Z,76.70
2022-09-23T09:52:54.083Z,76.15
2022-09-23T09:53:53.937Z,75.34
2022-09-23T09:54:54.559Z,75.34
2022-09-23T09:55:54.168Z,74.84
2022-09-23T09:56:53.953Z,75.45
2022-09-23T09:57:53.915Z,76.12
2022-09-23T09:58:54.141Z,74.19
2022-09-23T09:59:53.886Z,73.69
2022-09-23T10:00:55.634Z,74.30
2022-09-23T10:01:53.985Z,74.90
2022-09-23T10:02:54.034Z,74.60
2022-09-23T10:03:55.722Z,74.40
2022-09-23T10:04:53.962Z,74.40
2022-09-23T10:05:54.139Z,74.19
2022-09-23T10:06:53.994Z,73.99
2022-09-23T10:07:55.099Z,72.78
2022-09-23T10:08:53.958Z,73.49
2022-09-23T10:09:55.781Z,73.69
2022-09-23T10:10:54.582Z,73.59
2022-09-23T10:11:53.777Z,73.66
2022-09-23T10:12:53.829Z,72.38
2022-09-23T10:13:54.105Z,72.68
2022-09-23T10:14:53.728Z,72.99
2022-09-23T10:15:54.172Z,74.40
2022-09-23T10:16:53.967Z,74.10
2022-09-23T10:17:54.039Z,74.10
2022-09-23T10:18:53.893Z,73.90
2022-09-23T10:19:54.103Z,73.49
2022-09-23T10:20:53.818Z,73.90
2022-09-23T10:21:53.660Z,74.19
2022-09-23T10:22:54.071Z,74.19
2022-09-23T10:23:53.966Z,73.90
2022-09-23T10:24:53.956Z,74.40
2022-09-23T10:25:53.595Z,74.50
2022-09-23T10:26:53.824Z,74.70
2022-09-23T10:27:55.411Z,74.70
2022-09-23T10:28:54.121Z,74.70
2022-09-23T10:29:53.514Z,74.60
2022-09-23T10:30:53.803Z,74.70
2022-09-23T10:31:54.426Z,74.77
2022-09-23T10:32:53.486Z,73.86
2022-09-23T10:33:53.574Z,73.35
2022-09-23T10:34:53.970Z,73.35
2022-09-23T10:35:53.586Z,73.55
2022-09-23T10:36:53.453Z,73.75
2022-09-23T10:37:53.392Z,74.06
2022-09-23T10:38:53.386Z,74.57
2022-09-23T10:39:53.574Z,74.37
2022-09-23T10:40:53.703Z,73.75
2022-09-23T10:41:54.112Z,73.96
2022-09-23T10:42:53.618Z,74.63
2022-09-23T10:43:53.427Z,74.13
2022-09-23T10:44:53.328Z,73.62
2022-09-23T10:45:53.677Z,74.22
2022-09-23T10:46:53.327Z,73.11
2022-09-23T10:47:53.321Z,73.02
2022-09-23T10:48:53.414Z,73.58
2022-09-23T10:49:53.441Z,73.49
2022-09-23T10:50:53.423Z,73.08
2022-09-23T10:51:54.128Z,72.38
2022-09-23T10:52:54.292Z,72.85
2022-09-23T10:53:53.571Z,72.85
2022-09-23T10:54:54.263Z,72.71
2022-09-23T10:55:53.364Z,72.91
2022-09-23T10:56:53.277Z,72.91
2022-09-23T10:57:53.188Z,72.20
2022-09-23T10:58:53.189Z,72.00
2022-09-23T10:59:53.170Z,73.22
2022-09-23T11:00:53.132Z,73.52
2022-09-23T11:01:53.277Z,72.81
2022-09-23T11:02:53.153Z,73.11
2022-09-23T11:03:53.116Z,72.71
2022-09-23T11:04:53.327Z,72.91
2022-09-23T11:05:53.152Z,72.88
2022-09-23T11:06:53.130Z,73.08
2022-09-23T11:07:53.097Z,72.07
2022-09-23T11:08:53.048Z,72.07
2022-09-23T11:09:53.295Z,72.07
2022-09-23T11:10:53.117Z,72.78
2022-09-23T11:11:53.825Z,71.73
2022-09-23T11:12:53.012Z,72.24
2022-09-23T11:14:03.916Z,71.47
2022-09-23T11:14:53.979Z,71.06
2022-09-23T11:15:52.965Z,72.44
2022-09-23T11:16:53.120Z,72.04
2022-09-23T11:17:52.944Z,71.13
2022-09-23T11:18:52.983Z,71.44
2022-09-23T11:19:52.933Z,72.14
2022-09-23T11:20:53.003Z,72.24
2022-09-23T11:21:52.961Z,71.94
2022-09-23T11:22:52.929Z,71.33
2022-09-23T11:23:52.899Z,72.34
2022-09-23T11:24:53.265Z,71.94
2022-09-23T11:25:52.857Z,71.64
2022-09-23T11:26:52.907Z,71.73
2022-09-23T11:27:52.888Z,71.94
2022-09-23T11:28:53.335Z,71.84
2022-09-23T11:29:53.127Z,71.64
2022-09-23T11:30:53.057Z,71.10
2022-09-23T11:31:57.400Z,70.70
2022-09-23T11:32:52.948Z,71.20
2022-09-23T11:33:52.841Z,71.40
2022-09-23T11:34:54.961Z,71.40
2022-09-23T11:35:53.223Z,70.59
2022-09-23T11:36:53.302Z,70.50
2022-09-23T11:37:52.890Z,69.99
2022-09-23T11:38:53.118Z,70.09
2022-09-23T11:39:52.994Z,71.30
2022-09-23T11:40:52.844Z,71.10
2022-09-23T11:41:52.998Z,69.69
2022-09-23T11:42:53.031Z,69.38
2022-09-23T11:43:52.757Z,69.29
2022-09-23T11:44:52.757Z,69.18
2022-09-23T11:45:53.236Z,69.21
2022-09-23T11:46:52.690Z,70.53
2022-09-23T11:47:52.759Z,70.39
2022-09-23T11:48:52.710Z,70.09
2022-09-23T11:49:52.765Z,71.00
2022-09-23T11:50:52.631Z,69.99
2022-09-23T11:51:52.935Z,69.09
2022-09-23T11:52:52.626Z,69.29
2022-09-23T11:53:52.640Z,69.62
2022-09-23T11:54:52.624Z,69.62
2022-09-23T11:55:57.860Z,70.22
2022-09-23T11:56:52.535Z,70.79
2022-09-23T11:57:52.533Z,70.62
2022-09-23T11:58:57.348Z,71.00
2022-09-23T11:59:52.500Z,71.00
2022-09-23T12:00:59.415Z,71.40
2022-09-23T12:01:52.552Z,70.79
2022-09-23T12:03:02.867Z,69.89
2022-09-23T12:03:52.615Z,69.92
2022-09-23T12:04:57.761Z,70.93
2022-09-23T12:05:53.605Z,71.03
2022-09-23T12:06:52.560Z,71.33
2022-09-23T12:07:52.429Z,70.53
2022-09-23T12:08:52.419Z,70.73
2022-09-23T12:09:58.429Z,70.12
2022-09-23T12:10:52.431Z,69.52
2022-09-23T12:11:52.381Z,70.02
2022-09-23T12:12:53.134Z,69.92
2022-09-23T12:13:52.450Z,69.72
2022-09-23T12:14:52.364Z,69.82
2022-09-23T12:15:52.319Z,69.52
2022-09-23T12:16:52.599Z,70.73
2022-09-23T12:17:52.320Z,71.03
2022-09-23T12:18:52.389Z,69.92
2022-09-23T12:19:52.297Z,70.12
2022-09-23T12:20:52.311Z,69.72
2022-09-23T12:21:52.564Z,69.05
2022-09-23T12:22:52.407Z,69.75
2022-09-23T12:23:52.603Z,70.06
2022-09-23T12:24:52.429Z,70.93
2022-09-23T12:25:52.604Z,70.73
2022-09-23T12:26:52.461Z,70.62
2022-09-23T12:27:52.330Z,70.62
2022-09-23T12:28:58.565Z,70.32
2022-09-23T12:29:53.257Z,70.22
2022-09-23T12:30:52.237Z,70.22
2022-09-23T12:31:52.142Z,70.32
2022-09-23T12:32:52.163Z,70.02
2022-09-23T12:33:52.133Z,70.32
2022-09-23T12:34:52.174Z,70.53
2022-09-23T12:35:52.256Z,70.83
2022-09-23T12:36:52.106Z,71.33
2022-09-23T12:37:52.092Z,70.62
2022-09-23T12:38:52.088Z,71.13
2022-09-23T12:39:52.104Z,70.12
2022-09-23T12:40:52.275Z,70.02
2022-09-23T12:41:52.104Z,70.93
2022-09-23T12:42:52.109Z,70.53
2022-09-23T12:43:52.008Z,70.02
2022-09-23T12:44:52.052Z,70.32
2022-09-23T12:45:52.014Z,70.93
2022-09-23T12:46:52.033Z,70.22
2022-09-23T12:47:51.958Z,70.02
2022-09-23T12:48:51.947Z,69.92
2022-09-23T12:49:51.986Z,69.92
2022-09-23T12:50:52.335Z,70.42
2022-09-23T12:51:52.035Z,70.62